Aeroporto :
LOGIN :

Iscrizione | Disclaimer

   EN    FR    IT 

 










Sommario :    VFR   VFR Marginale   IFR   IFR Intensivo   IFR Molto Intensivo
Visibilità : 
Base nubi : 
>= 8 km
>= 3000ft
5 / 8 km
1000 / 3000 ft
1500m / 5 km
500 / 1000 ft
800 / 1500m
200 / 500 ft
< 800m
< 200 ft
Simboli :   Temporali  Nebbia  Neve Forte  Precipitazioni Forti  Vento > 20 kt
SIGMETs :   Varie  Temporali  Ghiacco  Turbolenza  Onda orograficha  Ceneri Vulcaniche






- Altitudine del aeroporto : 147 ft
- Codice IATA : DUS


EDDL - Düsseldorf Int.

ULTIMO METAR :
  • 211820Z 17012KT 9999 -RA FEW019 BKN030 07/04 Q0991 TEMPO 18020G30KT RA

METARs OBSOLETI :
  • 211750Z 19015G25KT 170V230 9999 -RA FEW020 BKN038 08/02 Q0992 TEMPO 18020G30KT RA
  • 211720Z 18014KT 9999 FEW040 08/02 Q0992 TEMPO 18015G25KT RA
  • 211650Z 18013KT 9999 BKN040 08/02 Q0992 NOSIG
  • 211620Z 19014KT 9999 FEW038 08/02 Q0993 NOSIG
  • 211550Z 19016KT 9999 FEW038 08/02 Q0993 NOSIG

TAF COR TAF EDDL
Valido dal 21 a 18 ore il 23 a 00 ore UTC


211750Z 2118/2224 17015G25KT 9999 BKN030
TEMPO 2118/2121 19020G30KT RA
BECMG 2121/2123 19020G30KT
PROB40
TEMPO 2123/2201 SHRA SCT015CB
TEMPO 2201/2204 29025G40KT SHRA BKN015CB
BECMG 2204/2207 23010KT
PROB30
TEMPO 2204/2210 BKN014
BECMG 2220/2223 17007KT



MetMap, La meteo Aeronautica in un colpo d'occhio ! - Copyright ORBIFLY Dicembre 2007 - Disclaimer

ORBIFLY MET'MAP TEAM :

Programmazione e sviluppo : Alexandra Zaïnal
Concezione : Baudouin d'Aumeries
Aiuto per la programmazione : Marc-Olivier Méhu
Supporto tecnico e logistico : Manuel Goepfert
Aiuto per la traduzione : Arnaldo La Scala

Contatto : metmap@orbifly.com




FONTI E CREDITI :

   NOAA